PIA455 OPIS-OPSD
Flight info
| Callsign | PIA455 |
|---|---|
| Flight time | 0h 41m |
| Altitude | 31000 |
| Route | BOBAM DCT KAGLO J186 KAPMI J154 BUNGI J186 DELDA DCT BIREB |
| Aircraft | A320/M-SDE3FGHIRWY/LB1 |
Departure
| Time | 2026-05-06 18:35 |
|---|---|
| Airport | Islamabad International Airport (OPIS) |
Arrival
| Time | 2026-05-06 19:17 |
|---|---|
| Airport | Skardu International Airport (OPSD) |
| Time | Latitude | Longitude | Altitude | Speed | Heading |
|---|---|---|---|---|---|
| 2026-05-06 18:07 | 33.55437 | 72.83445 | 1771 ft | 0 kts | 10° |
| 2026-05-06 18:25 | 33.55424 | 72.83442 | 1772 ft | 4 kts | 11° |
| 2026-05-06 18:25 | 33.55397 | 72.83435 | 1773 ft | 4 kts | 16° |
| 2026-05-06 18:25 | 33.55372 | 72.83424 | 1770 ft | 4 kts | 27° |
| 2026-05-06 18:25 | 33.55352 | 72.83406 | 1770 ft | 4 kts | 68° |
| 2026-05-06 18:26 | 33.55350 | 72.83394 | 1770 ft | 0 kts | 100° |
| 2026-05-06 18:28 | 33.55349 | 72.83395 | 1770 ft | 1 kts | 100° |
| 2026-05-06 18:28 | 33.55343 | 72.83441 | 1771 ft | 16 kts | 100° |
| 2026-05-06 18:28 | 33.55326 | 72.83526 | 1773 ft | 8 kts | 124° |
| 2026-05-06 18:29 | 33.55281 | 72.83543 | 1770 ft | 8 kts | 184° |
| 2026-05-06 18:29 | 33.55187 | 72.83523 | 1770 ft | 15 kts | 190° |
| 2026-05-06 18:29 | 33.55099 | 72.83507 | 1769 ft | 8 kts | 188° |
| 2026-05-06 18:29 | 33.55065 | 72.83478 | 1771 ft | 6 kts | 249° |
| 2026-05-06 18:30 | 33.55065 | 72.83434 | 1770 ft | 8 kts | 278° |
| 2026-05-06 18:30 | 33.55081 | 72.83329 | 1770 ft | 14 kts | 281° |
| 2026-05-06 18:30 | 33.55098 | 72.83213 | 1772 ft | 16 kts | 279° |
| 2026-05-06 18:30 | 33.55116 | 72.83074 | 1768 ft | 18 kts | 281° |
| 2026-05-06 18:31 | 33.55146 | 72.82911 | 1771 ft | 21 kts | 282° |
| 2026-05-06 18:31 | 33.55171 | 72.82723 | 1768 ft | 24 kts | 278° |
| 2026-05-06 18:31 | 33.55192 | 72.82510 | 1768 ft | 27 kts | 283° |
| 2026-05-06 18:31 | 33.55240 | 72.82302 | 1772 ft | 25 kts | 279° |
| 2026-05-06 18:32 | 33.55268 | 72.82088 | 1768 ft | 26 kts | 278° |
| 2026-05-06 18:32 | 33.55302 | 72.81869 | 1767 ft | 27 kts | 281° |
| 2026-05-06 18:32 | 33.55334 | 72.81654 | 1767 ft | 20 kts | 276° |
| 2026-05-06 18:32 | 33.55339 | 72.81565 | 1767 ft | 0 kts | 272° |
| 2026-05-06 18:33 | 33.55343 | 72.81547 | 1768 ft | 10 kts | 284° |
| 2026-05-06 18:33 | 33.55372 | 72.81427 | 1771 ft | 18 kts | 286° |
| 2026-05-06 18:33 | 33.55397 | 72.81277 | 1770 ft | 19 kts | 280° |
| 2026-05-06 18:33 | 33.55427 | 72.81084 | 1771 ft | 29 kts | 279° |
| 2026-05-06 18:34 | 33.55453 | 72.80897 | 1770 ft | 23 kts | 279° |
| 2026-05-06 18:34 | 33.55452 | 72.80702 | 1767 ft | 22 kts | 217° |
| 2026-05-06 18:34 | 33.55253 | 72.80652 | 1755 ft | 34 kts | 189° |
| 2026-05-06 18:34 | 33.55097 | 72.80708 | 1750 ft | 29 kts | 101° |
| 2026-05-06 18:35 | 33.55028 | 72.81170 | 1757 ft | 89 kts | 102° |
| 2026-05-06 18:35 | 33.54875 | 72.82139 | 1755 ft | 145 kts | 101° |
| 2026-05-06 18:35 | 33.54655 | 72.83508 | 1843 ft | 181 kts | 102° |
| 2026-05-06 18:35 | 33.54393 | 72.85004 | 2447 ft | 183 kts | 102° |
| 2026-05-06 18:36 | 33.54159 | 72.86489 | 3087 ft | 183 kts | 102° |
| 2026-05-06 18:36 | 33.53927 | 72.88010 | 3618 ft | 192 kts | 102° |
| 2026-05-06 18:36 | 33.53670 | 72.89676 | 3906 ft | 215 kts | 102° |
| 2026-05-06 18:36 | 33.53248 | 72.91477 | 4182 ft | 234 kts | 121° |
| 2026-05-06 18:37 | 33.52185 | 72.93037 | 4439 ft | 254 kts | 138° |
| 2026-05-06 18:37 | 33.50781 | 72.94472 | 4769 ft | 274 kts | 143° |
| 2026-05-06 18:37 | 33.49251 | 72.95893 | 5439 ft | 281 kts | 143° |
| 2026-05-06 18:37 | 33.47689 | 72.97344 | 6197 ft | 286 kts | 142° |
| 2026-05-06 18:38 | 33.46124 | 72.98846 | 6909 ft | 290 kts | 141° |
| 2026-05-06 18:38 | 33.44558 | 73.00405 | 7619 ft | 295 kts | 139° |
| 2026-05-06 18:38 | 33.43000 | 73.01996 | 8330 ft | 300 kts | 138° |
| 2026-05-06 18:38 | 33.41580 | 73.03838 | 9020 ft | 303 kts | 121° |
| 2026-05-06 18:39 | 33.40758 | 73.06152 | 9711 ft | 304 kts | 98° |
| 2026-05-06 18:39 | 33.40729 | 73.08650 | 10365 ft | 300 kts | 75° |
| 2026-05-06 18:39 | 33.41494 | 73.10947 | 11007 ft | 300 kts | 54° |
| 2026-05-06 18:40 | 33.45077 | 73.13752 | 11348 ft | 334 kts | 7° |
| 2026-05-06 18:40 | 33.47419 | 73.13700 | 11843 ft | 342 kts | 354° |
| 2026-05-06 18:40 | 33.49802 | 73.13433 | 12483 ft | 345 kts | 355° |
| 2026-05-06 18:40 | 33.52210 | 73.13164 | 13148 ft | 349 kts | 355° |
| 2026-05-06 18:41 | 33.54638 | 73.12899 | 13789 ft | 352 kts | 355° |
| 2026-05-06 18:41 | 33.57088 | 73.12667 | 14377 ft | 355 kts | 357° |
| 2026-05-06 18:41 | 33.59562 | 73.12525 | 14959 ft | 358 kts | 358° |
| 2026-05-06 18:41 | 33.62066 | 73.12434 | 15512 ft | 362 kts | 359° |
| 2026-05-06 18:42 | 33.64598 | 73.12359 | 16077 ft | 365 kts | 359° |
| 2026-05-06 18:42 | 33.67116 | 73.12282 | 16635 ft | 369 kts | 359° |
| 2026-05-06 18:42 | 33.69696 | 73.12193 | 17200 ft | 373 kts | 359° |
| 2026-05-06 18:42 | 33.72301 | 73.12092 | 17766 ft | 376 kts | 359° |
| 2026-05-06 18:43 | 33.74937 | 73.11979 | 18309 ft | 380 kts | 359° |
| 2026-05-06 18:43 | 33.77599 | 73.11859 | 18822 ft | 383 kts | 358° |
| 2026-05-06 18:43 | 33.80273 | 73.11734 | 19362 ft | 386 kts | 358° |
| 2026-05-06 18:43 | 33.82964 | 73.11610 | 19891 ft | 388 kts | 359° |
| 2026-05-06 18:44 | 33.85674 | 73.11486 | 20407 ft | 391 kts | 358° |
| 2026-05-06 18:44 | 33.88406 | 73.11362 | 20948 ft | 394 kts | 358° |
| 2026-05-06 18:44 | 33.91147 | 73.11240 | 21469 ft | 396 kts | 358° |
| 2026-05-06 18:44 | 33.93913 | 73.11122 | 21986 ft | 398 kts | 358° |
| 2026-05-06 18:45 | 33.96692 | 73.11004 | 22493 ft | 401 kts | 358° |
| 2026-05-06 18:45 | 33.99485 | 73.10885 | 22973 ft | 403 kts | 358° |
| 2026-05-06 18:45 | 34.02262 | 73.10766 | 23440 ft | 405 kts | 358° |
| 2026-05-06 18:45 | 34.05098 | 73.10641 | 23835 ft | 407 kts | 358° |
| 2026-05-06 18:46 | 34.07937 | 73.10517 | 24204 ft | 410 kts | 358° |
| 2026-05-06 18:46 | 34.10798 | 73.10393 | 24557 ft | 413 kts | 358° |
| 2026-05-06 18:46 | 34.13678 | 73.10266 | 24929 ft | 414 kts | 358° |
| 2026-05-06 18:46 | 34.16567 | 73.10139 | 25319 ft | 416 kts | 358° |
| 2026-05-06 18:47 | 34.19466 | 73.10011 | 25709 ft | 417 kts | 358° |
| 2026-05-06 18:47 | 34.22373 | 73.09882 | 26081 ft | 419 kts | 358° |
| 2026-05-06 18:47 | 34.25289 | 73.09751 | 26452 ft | 420 kts | 358° |
| 2026-05-06 18:47 | 34.28217 | 73.09618 | 26819 ft | 422 kts | 358° |
| 2026-05-06 18:48 | 34.31160 | 73.09486 | 27173 ft | 423 kts | 358° |
| 2026-05-06 18:48 | 34.34072 | 73.09357 | 27462 ft | 426 kts | 358° |
| 2026-05-06 18:48 | 34.37042 | 73.09226 | 27785 ft | 428 kts | 358° |
| 2026-05-06 18:48 | 34.40018 | 73.09097 | 28107 ft | 429 kts | 358° |
| 2026-05-06 18:49 | 34.43012 | 73.08967 | 28402 ft | 430 kts | 358° |
| 2026-05-06 18:49 | 34.46012 | 73.08836 | 28731 ft | 432 kts | 358° |
| 2026-05-06 18:49 | 34.49021 | 73.08702 | 29037 ft | 433 kts | 358° |
| 2026-05-06 18:49 | 34.52037 | 73.08779 | 29311 ft | 435 kts | 7° |
| 2026-05-06 18:50 | 34.54993 | 73.09588 | 29595 ft | 437 kts | 18° |
| 2026-05-06 18:50 | 34.57761 | 73.11138 | 29865 ft | 440 kts | 30° |
| 2026-05-06 18:50 | 34.60226 | 73.13368 | 30052 ft | 445 kts | 41° |
| 2026-05-06 18:50 | 34.62268 | 73.16218 | 30263 ft | 449 kts | 53° |
| 2026-05-06 18:51 | 34.63921 | 73.19442 | 30537 ft | 449 kts | 56° |
| 2026-05-06 18:51 | 34.65542 | 73.22676 | 30838 ft | 448 kts | 56° |
| 2026-05-06 18:51 | 34.67138 | 73.25863 | 30970 ft | 444 kts | 56° |
| 2026-05-06 18:52 | 34.70304 | 73.32212 | 31010 ft | 437 kts | 57° |
| 2026-05-06 18:52 | 34.73462 | 73.38546 | 31047 ft | 438 kts | 56° |
| 2026-05-06 18:53 | 34.76622 | 73.44877 | 31046 ft | 438 kts | 55° |
| 2026-05-06 18:53 | 34.80596 | 73.50409 | 31046 ft | 434 kts | 38° |
| 2026-05-06 18:54 | 34.85342 | 73.54867 | 31092 ft | 433 kts | 36° |
| 2026-05-06 18:54 | 34.90118 | 73.59356 | 31086 ft | 433 kts | 36° |
| 2026-05-06 18:55 | 34.94878 | 73.63843 | 31107 ft | 432 kts | 36° |
| 2026-05-06 18:55 | 34.99635 | 73.68335 | 31120 ft | 433 kts | 37° |
| 2026-05-06 18:56 | 35.04410 | 73.72856 | 31109 ft | 434 kts | 37° |
| 2026-05-06 18:56 | 35.09183 | 73.77373 | 31091 ft | 435 kts | 37° |
| 2026-05-06 18:57 | 35.13971 | 73.81906 | 31092 ft | 435 kts | 37° |
| 2026-05-06 18:57 | 35.18734 | 73.86418 | 31059 ft | 436 kts | 37° |
| 2026-05-06 18:58 | 35.23531 | 73.90970 | 31059 ft | 437 kts | 37° |
| 2026-05-06 18:58 | 35.28340 | 73.95544 | 31060 ft | 438 kts | 37° |
| 2026-05-06 18:59 | 35.33148 | 74.00123 | 31061 ft | 438 kts | 37° |
| 2026-05-06 18:59 | 35.37959 | 74.04722 | 31066 ft | 438 kts | 38° |
| 2026-05-06 19:00 | 35.42184 | 74.10013 | 31064 ft | 439 kts | 54° |
| 2026-05-06 19:00 | 35.45145 | 74.16566 | 31062 ft | 439 kts | 62° |
| 2026-05-06 19:01 | 35.47946 | 74.23229 | 31084 ft | 439 kts | 62° |
| 2026-05-06 19:01 | 35.50754 | 74.29891 | 31082 ft | 439 kts | 62° |
| 2026-05-06 19:02 | 35.53560 | 74.36555 | 31086 ft | 440 kts | 62° |
| 2026-05-06 19:02 | 35.54962 | 74.39899 | 30959 ft | 441 kts | 63° |
| 2026-05-06 19:02 | 35.56362 | 74.43245 | 30603 ft | 439 kts | 63° |
| 2026-05-06 19:02 | 35.57754 | 74.46572 | 29949 ft | 436 kts | 63° |
| 2026-05-06 19:03 | 35.59118 | 74.49835 | 29323 ft | 432 kts | 63° |
| 2026-05-06 19:03 | 35.60477 | 74.53101 | 28745 ft | 427 kts | 63° |
| 2026-05-06 19:03 | 35.61820 | 74.56336 | 28168 ft | 423 kts | 63° |
| 2026-05-06 19:03 | 35.63154 | 74.59545 | 27585 ft | 420 kts | 63° |
| 2026-05-06 19:04 | 35.64504 | 74.62709 | 26990 ft | 417 kts | 61° |
| 2026-05-06 19:04 | 35.65901 | 74.65829 | 26438 ft | 414 kts | 60° |
| 2026-05-06 19:04 | 35.67314 | 74.68901 | 25855 ft | 411 kts | 60° |
| 2026-05-06 19:04 | 35.68733 | 74.71958 | 25288 ft | 408 kts | 60° |
| 2026-05-06 19:05 | 35.69882 | 74.75140 | 24720 ft | 407 kts | 72° |
| 2026-05-06 19:05 | 35.70469 | 74.78537 | 24220 ft | 406 kts | 83° |
| 2026-05-06 19:05 | 35.70483 | 74.81955 | 23666 ft | 405 kts | 95° |
| 2026-05-06 19:05 | 35.69936 | 74.85346 | 23113 ft | 404 kts | 105° |
| 2026-05-06 19:06 | 35.69134 | 74.88642 | 22615 ft | 400 kts | 105° |
| 2026-05-06 19:06 | 35.68342 | 74.91906 | 22127 ft | 397 kts | 105° |
| 2026-05-06 19:06 | 35.67557 | 74.95152 | 21654 ft | 393 kts | 105° |
| 2026-05-06 19:06 | 35.66783 | 74.98370 | 21187 ft | 390 kts | 105° |
| 2026-05-06 19:07 | 35.66018 | 75.01554 | 20716 ft | 387 kts | 105° |
| 2026-05-06 19:07 | 35.65512 | 75.03655 | 20396 ft | 385 kts | 105° |
| 2026-05-06 19:07 | 35.64497 | 75.07860 | 19778 ft | 381 kts | 105° |
| 2026-05-06 19:07 | 35.63741 | 75.10975 | 19298 ft | 379 kts | 105° |
| 2026-05-06 19:08 | 35.62994 | 75.14048 | 18815 ft | 377 kts | 105° |
| 2026-05-06 19:08 | 35.62241 | 75.17135 | 18289 ft | 376 kts | 105° |
| 2026-05-06 19:08 | 35.61489 | 75.20209 | 17764 ft | 374 kts | 105° |
| 2026-05-06 19:08 | 35.60743 | 75.23264 | 17266 ft | 372 kts | 105° |
| 2026-05-06 19:09 | 35.60008 | 75.26274 | 17051 ft | 360 kts | 105° |
| 2026-05-06 19:09 | 35.59278 | 75.29112 | 16913 ft | 337 kts | 110° |
| 2026-05-06 19:09 | 35.58270 | 75.31578 | 16788 ft | 318 kts | 121° |
| 2026-05-06 19:09 | 35.56953 | 75.33667 | 16657 ft | 301 kts | 131° |
| 2026-05-06 19:10 | 35.55427 | 75.35353 | 16376 ft | 291 kts | 141° |
| 2026-05-06 19:10 | 35.53740 | 75.36695 | 15905 ft | 287 kts | 147° |
| 2026-05-06 19:10 | 35.52049 | 75.37963 | 15387 ft | 283 kts | 147° |
| 2026-05-06 19:10 | 35.50375 | 75.39221 | 14828 ft | 280 kts | 147° |
| 2026-05-06 19:11 | 35.48715 | 75.40472 | 14236 ft | 283 kts | 146° |
| 2026-05-06 19:11 | 35.46997 | 75.41770 | 13495 ft | 295 kts | 146° |
| 2026-05-06 19:11 | 35.45302 | 75.43196 | 13251 ft | 288 kts | 142° |
| 2026-05-06 19:11 | 35.43794 | 75.44776 | 12897 ft | 286 kts | 135° |
| 2026-05-06 19:12 | 35.42383 | 75.46498 | 12321 ft | 284 kts | 135° |
| 2026-05-06 19:12 | 35.40885 | 75.47963 | 11817 ft | 272 kts | 148° |
| 2026-05-06 19:12 | 35.39267 | 75.49002 | 11196 ft | 255 kts | 155° |
| 2026-05-06 19:12 | 35.37689 | 75.49892 | 10554 ft | 240 kts | 156° |
| 2026-05-06 19:13 | 35.36242 | 75.50711 | 10129 ft | 221 kts | 156° |
| 2026-05-06 19:13 | 35.34872 | 75.51434 | 9676 ft | 204 kts | 159° |
| 2026-05-06 19:13 | 35.33602 | 75.52121 | 9421 ft | 192 kts | 157° |
| 2026-05-06 19:13 | 35.32467 | 75.52780 | 9321 ft | 176 kts | 156° |
| 2026-05-06 19:14 | 35.31375 | 75.53398 | 9134 ft | 171 kts | 156° |
| 2026-05-06 19:14 | 35.30301 | 75.54032 | 9056 ft | 173 kts | 158° |
| 2026-05-06 19:14 | 35.29224 | 75.54700 | 8945 ft | 174 kts | 147° |
| 2026-05-06 19:14 | 35.28547 | 75.55878 | 8658 ft | 174 kts | 94° |
| 2026-05-06 19:15 | 35.28991 | 75.57159 | 8324 ft | 170 kts | 29° |
| 2026-05-06 19:15 | 35.30065 | 75.57246 | 8239 ft | 162 kts | 326° |
| 2026-05-06 19:15 | 35.30628 | 75.56636 | 8007 ft | 166 kts | 310° |
| 2026-05-06 19:15 | 35.31511 | 75.55758 | 7685 ft | 165 kts | 326° |
| 2026-05-06 19:16 | 35.32784 | 75.54750 | 7385 ft | 162 kts | 325° |
| 2026-05-06 19:16 | 35.33393 | 75.54262 | 7363 ft | 139 kts | 326° |
| 2026-05-06 19:16 | 35.33965 | 75.53818 | 7361 ft | 71 kts | 326° |
| 2026-05-06 19:16 | 35.34338 | 75.53512 | 7363 ft | 59 kts | 327° |
| 2026-05-06 19:17 | 35.34622 | 75.53294 | 7359 ft | 38 kts | 326° |
| 2026-05-06 19:17 | 35.34808 | 75.53234 | 7360 ft | 21 kts | 354° |
| 2026-05-06 19:17 | 35.34926 | 75.53231 | 7360 ft | 16 kts | 357° |
| 2026-05-06 19:17 | 35.35004 | 75.53246 | 7361 ft | 10 kts | 43° |
| 2026-05-06 19:18 | 35.34993 | 75.53305 | 7361 ft | 7 kts | 135° |
| 2026-05-06 19:18 | 35.34952 | 75.53342 | 7363 ft | 10 kts | 147° |
| 2026-05-06 19:18 | 35.34886 | 75.53396 | 7363 ft | 11 kts | 146° |
| 2026-05-06 19:18 | 35.34823 | 75.53448 | 7363 ft | 11 kts | 146° |
| 2026-05-06 19:19 | 35.34757 | 75.53499 | 7365 ft | 14 kts | 147° |
| 2026-05-06 19:19 | 35.34654 | 75.53582 | 7367 ft | 19 kts | 146° |
| 2026-05-06 19:19 | 35.34540 | 75.53672 | 7367 ft | 20 kts | 147° |
| 2026-05-06 19:19 | 35.34422 | 75.53765 | 7368 ft | 20 kts | 148° |
| 2026-05-06 19:20 | 35.34300 | 75.53859 | 7367 ft | 21 kts | 148° |
| 2026-05-06 19:20 | 35.34169 | 75.53958 | 7367 ft | 22 kts | 148° |
| 2026-05-06 19:20 | 35.34033 | 75.54064 | 7365 ft | 24 kts | 147° |
| 2026-05-06 19:20 | 35.33896 | 75.54182 | 7366 ft | 24 kts | 145° |
| 2026-05-06 19:21 | 35.33753 | 75.54297 | 7363 ft | 25 kts | 148° |
| 2026-05-06 19:21 | 35.33608 | 75.54406 | 7364 ft | 25 kts | 149° |
| 2026-05-06 19:21 | 35.33462 | 75.54522 | 7364 ft | 25 kts | 146° |
| 2026-05-06 19:21 | 35.33312 | 75.54642 | 7362 ft | 26 kts | 147° |
| 2026-05-06 19:22 | 35.33173 | 75.54746 | 7359 ft | 20 kts | 147° |
| 2026-05-06 19:22 | 35.33055 | 75.54845 | 7358 ft | 21 kts | 147° |
| 2026-05-06 19:22 | 35.32933 | 75.54940 | 7360 ft | 21 kts | 147° |
| 2026-05-06 19:22 | 35.32809 | 75.55039 | 7360 ft | 21 kts | 145° |
| 2026-05-06 19:23 | 35.32717 | 75.55111 | 7361 ft | 12 kts | 148° |
| 2026-05-06 19:23 | 35.32658 | 75.55157 | 7361 ft | 9 kts | 148° |
| 2026-05-06 19:23 | 35.32648 | 75.55164 | 7361 ft | 0 kts | 149° |
| 2026-05-06 19:25 | 35.32651 | 75.55196 | 7365 ft | 13 kts | 82° |
| 2026-05-06 19:25 | 35.32627 | 75.55208 | 7364 ft | 8 kts | 291° |
| 2026-05-06 19:25 | 35.32687 | 75.55143 | 7364 ft | 17 kts | 323° |
| 2026-05-06 19:26 | 35.32802 | 75.55045 | 7363 ft | 23 kts | 326° |
| 2026-05-06 19:26 | 35.32946 | 75.54935 | 7362 ft | 27 kts | 329° |
| 2026-05-06 19:26 | 35.33111 | 75.54804 | 7362 ft | 28 kts | 326° |
| 2026-05-06 19:26 | 35.33272 | 75.54671 | 7362 ft | 28 kts | 326° |
| 2026-05-06 19:27 | 35.33372 | 75.54559 | 7363 ft | 11 kts | 255° |
| 2026-05-06 19:27 | 35.33337 | 75.54513 | 7364 ft | 7 kts | 236° |
| 2026-05-06 19:27 | 35.33302 | 75.54442 | 7364 ft | 13 kts | 239° |
| 2026-05-06 19:27 | 35.33236 | 75.54317 | 7364 ft | 21 kts | 235° |
| 2026-05-06 19:28 | 35.33168 | 75.54190 | 7363 ft | 12 kts | 238° |
| 2026-05-06 19:28 | 35.33141 | 75.54154 | 7364 ft | 4 kts | 192° |
| 2026-05-06 19:28 | 35.33115 | 75.54173 | 7363 ft | 7 kts | 147° |
| 2026-05-06 19:28 | 35.33109 | 75.54178 | 7363 ft | 0 kts | 147° |
| 2026-05-06 19:29 | 35.33098 | 75.54187 | 7363 ft | 0 kts | 147° |